sensor_id;sensor_type;location;lat;lon;timestamp;temperature;humidity
17843;DHT22;69286;48.222;16.332;2023-06-14T00:00:48;17.40;67.30
17843;DHT22;69286;48.222;16.332;2023-06-14T00:03:15;17.50;67.30
17843;DHT22;69286;48.222;16.332;2023-06-14T00:05:43;17.40;67.30
17843;DHT22;69286;48.222;16.332;2023-06-14T00:08:13;17.40;67.30
17843;DHT22;69286;48.222;16.332;2023-06-14T00:10:40;17.50;66.90
17843;DHT22;69286;48.222;16.332;2023-06-14T00:13:09;17.40;67.00
17843;DHT22;69286;48.222;16.332;2023-06-14T00:15:36;17.40;67.80
17843;DHT22;69286;48.222;16.332;2023-06-14T00:18:04;17.40;67.00
17843;DHT22;69286;48.222;16.332;2023-06-14T00:20:32;17.20;67.80
17843;DHT22;69286;48.222;16.332;2023-06-14T00:23:00;17.20;67.80
17843;DHT22;69286;48.222;16.332;2023-06-14T00:25:28;17.20;67.80
17843;DHT22;69286;48.222;16.332;2023-06-14T00:27:56;17.20;68.00
17843;DHT22;69286;48.222;16.332;2023-06-14T00:30:25;17.10;68.90
17843;DHT22;69286;48.222;16.332;2023-06-14T00:32:56;17.00;69.30
17843;DHT22;69286;48.222;16.332;2023-06-14T00:35:23;16.90;70.00
17843;DHT22;69286;48.222;16.332;2023-06-14T00:37:50;16.90;69.90
17843;DHT22;69286;48.222;16.332;2023-06-14T00:40:18;16.90;70.00
17843;DHT22;69286;48.222;16.332;2023-06-14T00:42:44;16.90;69.90
17843;DHT22;69286;48.222;16.332;2023-06-14T00:45:11;16.90;70.10
17843;DHT22;69286;48.222;16.332;2023-06-14T00:47:41;16.80;71.10
17843;DHT22;69286;48.222;16.332;2023-06-14T00:50:09;16.80;70.90
17843;DHT22;69286;48.222;16.332;2023-06-14T00:52:37;16.70;70.80
17843;DHT22;69286;48.222;16.332;2023-06-14T00:55:05;16.80;71.00
17843;DHT22;69286;48.222;16.332;2023-06-14T00:57:32;16.80;70.90
17843;DHT22;69286;48.222;16.332;2023-06-14T01:00:04;16.90;71.40
17843;DHT22;69286;48.222;16.332;2023-06-14T01:02:34;16.90;70.10
17843;DHT22;69286;48.222;16.332;2023-06-14T01:05:04;17.00;70.30
17843;DHT22;69286;48.222;16.332;2023-06-14T01:07:41;16.90;70.70
17843;DHT22;69286;48.222;16.332;2023-06-14T01:10:23;16.70;71.70
17843;DHT22;69286;48.222;16.332;2023-06-14T01:12:55;16.60;72.20
17843;DHT22;69286;48.222;16.332;2023-06-14T01:15:25;16.40;72.90
17843;DHT22;69286;48.222;16.332;2023-06-14T01:17:52;16.40;73.20
17843;DHT22;69286;48.222;16.332;2023-06-14T01:20:28;16.30;73.60
17843;DHT22;69286;48.222;16.332;2023-06-14T01:22:58;16.20;74.10
17843;DHT22;69286;48.222;16.332;2023-06-14T01:25:25;16.10;74.20
17843;DHT22;69286;48.222;16.332;2023-06-14T01:27:57;16.10;74.30
17843;DHT22;69286;48.222;16.332;2023-06-14T01:30:25;16.00;74.60
17843;DHT22;69286;48.222;16.332;2023-06-14T01:32:54;16.10;74.90
17843;DHT22;69286;48.222;16.332;2023-06-14T01:35:22;16.10;74.80
17843;DHT22;69286;48.222;16.332;2023-06-14T01:37:50;16.20;74.60
17843;DHT22;69286;48.222;16.332;2023-06-14T01:40:19;16.30;74.50
17843;DHT22;69286;48.222;16.332;2023-06-14T01:42:49;16.30;74.20
17843;DHT22;69286;48.222;16.332;2023-06-14T01:45:17;16.30;74.00
17843;DHT22;69286;48.222;16.332;2023-06-14T01:47:45;16.40;73.80
17843;DHT22;69286;48.222;16.332;2023-06-14T01:50:13;16.40;73.80
17843;DHT22;69286;48.222;16.332;2023-06-14T01:52:40;16.30;73.70
17843;DHT22;69286;48.222;16.332;2023-06-14T01:55:07;16.30;74.20
17843;DHT22;69286;48.222;16.332;2023-06-14T01:57:36;16.30;74.50
17843;DHT22;69286;48.222;16.332;2023-06-14T02:00:03;16.30;74.80
17843;DHT22;69286;48.222;16.332;2023-06-14T02:02:31;16.20;75.10
17843;DHT22;69286;48.222;16.332;2023-06-14T02:04:58;16.20;75.50
17843;DHT22;69286;48.222;16.332;2023-06-14T02:07:26;16.20;75.40
17843;DHT22;69286;48.222;16.332;2023-06-14T02:09:52;16.20;75.30
17843;DHT22;69286;48.222;16.332;2023-06-14T02:12:20;16.20;75.00
17843;DHT22;69286;48.222;16.332;2023-06-14T02:14:48;16.20;75.00
17843;DHT22;69286;48.222;16.332;2023-06-14T02:17:15;16.20;74.80
17843;DHT22;69286;48.222;16.332;2023-06-14T02:19:42;16.20;74.70
17843;DHT22;69286;48.222;16.332;2023-06-14T02:22:10;16.20;74.90
17843;DHT22;69286;48.222;16.332;2023-06-14T02:24:40;16.10;75.10
17843;DHT22;69286;48.222;16.332;2023-06-14T02:27:07;16.20;75.00
17843;DHT22;69286;48.222;16.332;2023-06-14T02:29:35;16.10;75.30
17843;DHT22;69286;48.222;16.332;2023-06-14T02:32:04;16.10;75.30
17843;DHT22;69286;48.222;16.332;2023-06-14T02:34:32;16.10;75.60
17843;DHT22;69286;48.222;16.332;2023-06-14T02:37:00;16.20;75.50
17843;DHT22;69286;48.222;16.332;2023-06-14T02:39:28;16.10;75.70
17843;DHT22;69286;48.222;16.332;2023-06-14T02:41:55;16.10;75.80
17843;DHT22;69286;48.222;16.332;2023-06-14T02:44:24;16.10;75.90
17843;DHT22;69286;48.222;16.332;2023-06-14T02:46:52;16.10;75.70
17843;DHT22;69286;48.222;16.332;2023-06-14T02:49:21;16.10;75.70
17843;DHT22;69286;48.222;16.332;2023-06-14T02:51:48;16.10;75.90
17843;DHT22;69286;48.222;16.332;2023-06-14T02:54:15;16.20;75.90
17843;DHT22;69286;48.222;16.332;2023-06-14T02:56:42;16.20;75.90
17843;DHT22;69286;48.222;16.332;2023-06-14T02:59:09;16.20;75.90
17843;DHT22;69286;48.222;16.332;2023-06-14T03:01:36;16.20;76.20
17843;DHT22;69286;48.222;16.332;2023-06-14T03:04:07;16.10;76.40
17843;DHT22;69286;48.222;16.332;2023-06-14T03:06:35;16.00;76.50
17843;DHT22;69286;48.222;16.332;2023-06-14T03:09:03;15.90;77.10
17843;DHT22;69286;48.222;16.332;2023-06-14T03:11:31;15.80;77.40
17843;DHT22;69286;48.222;16.332;2023-06-14T03:13:59;15.80;77.50
17843;DHT22;69286;48.222;16.332;2023-06-14T03:16:29;15.80;77.10
17843;DHT22;69286;48.222;16.332;2023-06-14T03:18:57;15.80;77.30
17843;DHT22;69286;48.222;16.332;2023-06-14T03:21:24;15.90;77.40
17843;DHT22;69286;48.222;16.332;2023-06-14T03:23:53;15.90;77.70
17843;DHT22;69286;48.222;16.332;2023-06-14T03:26:20;15.90;77.60
17843;DHT22;69286;48.222;16.332;2023-06-14T03:28:48;16.00;77.40
17843;DHT22;69286;48.222;16.332;2023-06-14T03:31:15;15.90;77.60
17843;DHT22;69286;48.222;16.332;2023-06-14T03:33:43;16.00;77.80
17843;DHT22;69286;48.222;16.332;2023-06-14T03:36:10;14.70;76.70
17843;DHT22;69286;48.222;16.332;2023-06-14T03:38:37;16.00;77.40
17843;DHT22;69286;48.222;16.332;2023-06-14T03:41:05;16.00;77.30
17843;DHT22;69286;48.222;16.332;2023-06-14T03:43:32;16.10;77.00
17843;DHT22;69286;48.222;16.332;2023-06-14T03:46:00;16.10;76.90
17843;DHT22;69286;48.222;16.332;2023-06-14T03:48:27;16.10;76.70
17843;DHT22;69286;48.222;16.332;2023-06-14T03:50:54;16.20;76.50
17843;DHT22;69286;48.222;16.332;2023-06-14T03:53:21;16.20;76.40
17843;DHT22;69286;48.222;16.332;2023-06-14T03:55:49;16.20;76.30
17843;DHT22;69286;48.222;16.332;2023-06-14T03:58:19;16.20;76.20
17843;DHT22;69286;48.222;16.332;2023-06-14T04:00:46;16.20;76.60
17843;DHT22;69286;48.222;16.332;2023-06-14T04:03:13;16.20;76.50
17843;DHT22;69286;48.222;16.332;2023-06-14T04:05:41;16.30;76.60
17843;DHT22;69286;48.222;16.332;2023-06-14T04:08:09;16.20;76.80
17843;DHT22;69286;48.222;16.332;2023-06-14T04:10:36;16.30;76.80
17843;DHT22;69286;48.222;16.332;2023-06-14T04:13:04;16.40;76.70
17843;DHT22;69286;48.222;16.332;2023-06-14T04:15:34;16.40;76.80
17843;DHT22;69286;48.222;16.332;2023-06-14T04:18:01;16.50;75.70
17843;DHT22;69286;48.222;16.332;2023-06-14T04:20:28;16.50;75.60
17843;DHT22;69286;48.222;16.332;2023-06-14T04:22:56;16.50;74.30
17843;DHT22;69286;48.222;16.332;2023-06-14T04:25:23;16.50;73.70
17843;DHT22;69286;48.222;16.332;2023-06-14T04:27:53;16.50;72.90
17843;DHT22;69286;48.222;16.332;2023-06-14T04:30:20;16.60;72.40
17843;DHT22;69286;48.222;16.332;2023-06-14T04:32:56;16.60;72.80
17843;DHT22;69286;48.222;16.332;2023-06-14T04:35:24;16.70;72.50
17843;DHT22;69286;48.222;16.332;2023-06-14T04:37:51;16.80;72.70
17843;DHT22;69286;48.222;16.332;2023-06-14T04:40:19;16.80;72.30
17843;DHT22;69286;48.222;16.332;2023-06-14T04:42:46;16.90;72.20
17843;DHT22;69286;48.222;16.332;2023-06-14T04:45:14;17.00;71.70
17843;DHT22;69286;48.222;16.332;2023-06-14T04:47:42;17.10;71.70
17843;DHT22;69286;48.222;16.332;2023-06-14T04:50:11;17.20;71.70
17843;DHT22;69286;48.222;16.332;2023-06-14T04:52:38;17.30;71.60
17843;DHT22;69286;48.222;16.332;2023-06-14T04:55:06;17.40;71.70
17843;DHT22;69286;48.222;16.332;2023-06-14T04:57:33;17.50;71.20
17843;DHT22;69286;48.222;16.332;2023-06-14T05:00:00;17.60;71.00
17843;DHT22;69286;48.222;16.332;2023-06-14T05:02:31;17.80;70.70
17843;DHT22;69286;48.222;16.332;2023-06-14T05:04:58;18.00;70.00
17843;DHT22;69286;48.222;16.332;2023-06-14T05:07:29;18.20;69.30
17843;DHT22;69286;48.222;16.332;2023-06-14T05:09:56;18.40;68.70
17843;DHT22;69286;48.222;16.332;2023-06-14T05:12:23;18.70;68.60
17843;DHT22;69286;48.222;16.332;2023-06-14T05:14:50;19.10;66.70
17843;DHT22;69286;48.222;16.332;2023-06-14T05:17:17;19.40;65.80
17843;DHT22;69286;48.222;16.332;2023-06-14T05:19:44;19.80;63.90
17843;DHT22;69286;48.222;16.332;2023-06-14T05:22:11;20.00;62.50
17843;DHT22;69286;48.222;16.332;2023-06-14T05:24:40;20.20;62.70
17843;DHT22;69286;48.222;16.332;2023-06-14T05:27:07;20.30;60.30
17843;DHT22;69286;48.222;16.332;2023-06-14T05:29:34;20.40;60.00
17843;DHT22;69286;48.222;16.332;2023-06-14T05:32:01;20.50;59.30
17843;DHT22;69286;48.222;16.332;2023-06-14T05:34:29;20.80;58.40
17843;DHT22;69286;48.222;16.332;2023-06-14T05:36:56;21.10;57.60
17843;DHT22;69286;48.222;16.332;2023-06-14T05:39:23;21.20;57.00
17843;DHT22;69286;48.222;16.332;2023-06-14T05:41:51;21.40;57.30
17843;DHT22;69286;48.222;16.332;2023-06-14T05:44:18;21.70;56.50
17843;DHT22;69286;48.222;16.332;2023-06-14T05:46:45;21.90;55.60
17843;DHT22;69286;48.222;16.332;2023-06-14T05:49:12;22.10;55.30
17843;DHT22;69286;48.222;16.332;2023-06-14T05:51:39;22.30;55.30
17843;DHT22;69286;48.222;16.332;2023-06-14T05:54:06;22.40;54.10
17843;DHT22;69286;48.222;16.332;2023-06-14T05:56:33;22.40;54.60
17843;DHT22;69286;48.222;16.332;2023-06-14T05:59:02;22.30;54.60
17843;DHT22;69286;48.222;16.332;2023-06-14T06:01:29;22.40;55.00
17843;DHT22;69286;48.222;16.332;2023-06-14T06:03:58;22.30;54.80
17843;DHT22;69286;48.222;16.332;2023-06-14T06:06:25;22.40;54.00
17843;DHT22;69286;48.222;16.332;2023-06-14T06:08:52;22.30;54.60
17843;DHT22;69286;48.222;16.332;2023-06-14T06:11:19;22.40;55.00
17843;DHT22;69286;48.222;16.332;2023-06-14T06:13:46;22.40;54.50
17843;DHT22;69286;48.222;16.332;2023-06-14T06:16:15;22.50;54.70
17843;DHT22;69286;48.222;16.332;2023-06-14T06:18:42;22.60;54.40
17843;DHT22;69286;48.222;16.332;2023-06-14T06:21:09;22.70;52.60
17843;DHT22;69286;48.222;16.332;2023-06-14T06:23:37;22.70;52.90
17843;DHT22;69286;48.222;16.332;2023-06-14T06:26:05;22.80;52.50
17843;DHT22;69286;48.222;16.332;2023-06-14T06:28:32;23.00;53.50
17843;DHT22;69286;48.222;16.332;2023-06-14T06:31:00;23.20;53.30
17843;DHT22;69286;48.222;16.332;2023-06-14T06:33:28;23.50;53.00
17843;DHT22;69286;48.222;16.332;2023-06-14T06:35:56;23.70;53.00
17843;DHT22;69286;48.222;16.332;2023-06-14T06:38:23;23.60;52.20
17843;DHT22;69286;48.222;16.332;2023-06-14T06:40:50;23.80;52.00
17843;DHT22;69286;48.222;16.332;2023-06-14T06:43:17;24.00;51.60
17843;DHT22;69286;48.222;16.332;2023-06-14T06:45:44;24.40;51.20
17843;DHT22;69286;48.222;16.332;2023-06-14T06:48:11;24.90;50.10
17843;DHT22;69286;48.222;16.332;2023-06-14T06:50:39;25.50;48.50
17843;DHT22;69286;48.222;16.332;2023-06-14T06:53:07;26.30;47.20
17843;DHT22;69286;48.222;16.332;2023-06-14T06:55:34;27.10;46.00
17843;DHT22;69286;48.222;16.332;2023-06-14T06:58:01;27.90;44.10
17843;DHT22;69286;48.222;16.332;2023-06-14T07:00:30;28.30;42.40
17843;DHT22;69286;48.222;16.332;2023-06-14T07:02:57;28.80;42.20
17843;DHT22;69286;48.222;16.332;2023-06-14T07:05:24;29.30;40.50
17843;DHT22;69286;48.222;16.332;2023-06-14T07:07:53;29.80;40.60
17843;DHT22;69286;48.222;16.332;2023-06-14T07:10:20;30.20;39.20
17843;DHT22;69286;48.222;16.332;2023-06-14T07:12:47;30.50;39.50
17843;DHT22;69286;48.222;16.332;2023-06-14T07:15:14;30.50;38.80
17843;DHT22;69286;48.222;16.332;2023-06-14T07:17:41;30.30;39.10
17843;DHT22;69286;48.222;16.332;2023-06-14T07:20:09;30.50;38.80
17843;DHT22;69286;48.222;16.332;2023-06-14T07:22:39;30.40;38.10
17843;DHT22;69286;48.222;16.332;2023-06-14T07:25:09;30.60;38.40
17843;DHT22;69286;48.222;16.332;2023-06-14T07:27:39;30.70;38.50
17843;DHT22;69286;48.222;16.332;2023-06-14T07:30:07;31.10;37.40
17843;DHT22;69286;48.222;16.332;2023-06-14T07:32:35;31.40;37.50
17843;DHT22;69286;48.222;16.332;2023-06-14T07:35:03;31.30;37.00
17843;DHT22;69286;48.222;16.332;2023-06-14T07:37:30;30.50;36.40
17843;DHT22;69286;48.222;16.332;2023-06-14T07:39:57;29.60;38.30
17843;DHT22;69286;48.222;16.332;2023-06-14T07:42:25;29.50;38.40
17843;DHT22;69286;48.222;16.332;2023-06-14T07:44:52;29.40;38.80
17843;DHT22;69286;48.222;16.332;2023-06-14T07:47:19;30.00;38.40
17843;DHT22;69286;48.222;16.332;2023-06-14T07:49:47;30.50;38.20
17843;DHT22;69286;48.222;16.332;2023-06-14T07:52:14;31.00;37.50
17843;DHT22;69286;48.222;16.332;2023-06-14T07:54:41;30.90;37.20
17843;DHT22;69286;48.222;16.332;2023-06-14T07:57:08;31.00;37.10
17843;DHT22;69286;48.222;16.332;2023-06-14T07:59:37;30.60;37.70
17843;DHT22;69286;48.222;16.332;2023-06-14T08:02:04;30.20;38.30
17843;DHT22;69286;48.222;16.332;2023-06-14T08:04:32;29.90;39.00
17843;DHT22;69286;48.222;16.332;2023-06-14T08:06:59;29.90;39.70
17843;DHT22;69286;48.222;16.332;2023-06-14T08:09:26;30.20;38.70
17843;DHT22;69286;48.222;16.332;2023-06-14T08:11:54;30.50;38.30
17843;DHT22;69286;48.222;16.332;2023-06-14T08:14:22;30.40;38.30
17843;DHT22;69286;48.222;16.332;2023-06-14T08:16:50;30.30;38.80
17843;DHT22;69286;48.222;16.332;2023-06-14T08:19:17;30.10;38.40
17843;DHT22;69286;48.222;16.332;2023-06-14T08:21:45;30.10;38.50
17843;DHT22;69286;48.222;16.332;2023-06-14T08:24:13;30.00;39.50
17843;DHT22;69286;48.222;16.332;2023-06-14T08:26:40;30.50;39.00
17843;DHT22;69286;48.222;16.332;2023-06-14T08:29:07;30.90;38.40
17843;DHT22;69286;48.222;16.332;2023-06-14T08:31:34;31.10;37.80
17843;DHT22;69286;48.222;16.332;2023-06-14T08:34:03;30.80;37.50
17843;DHT22;69286;48.222;16.332;2023-06-14T08:36:30;30.80;37.70
17843;DHT22;69286;48.222;16.332;2023-06-14T08:38:57;31.30;37.30
17843;DHT22;69286;48.222;16.332;2023-06-14T08:41:24;31.10;37.40
17843;DHT22;69286;48.222;16.332;2023-06-14T08:43:51;31.00;37.30
17843;DHT22;69286;48.222;16.332;2023-06-14T08:46:18;31.00;37.80
17843;DHT22;69286;48.222;16.332;2023-06-14T08:48:47;31.40;37.80
17843;DHT22;69286;48.222;16.332;2023-06-14T08:51:18;31.30;37.60
17843;DHT22;69286;48.222;16.332;2023-06-14T08:53:52;31.60;37.50
17843;DHT22;69286;48.222;16.332;2023-06-14T08:56:23;31.50;37.20
17843;DHT22;69286;48.222;16.332;2023-06-14T08:58:51;31.30;37.50
17843;DHT22;69286;48.222;16.332;2023-06-14T09:01:19;30.90;37.40
17843;DHT22;69286;48.222;16.332;2023-06-14T09:03:48;30.80;37.50
17843;DHT22;69286;48.222;16.332;2023-06-14T09:06:17;30.80;37.70
17843;DHT22;69286;48.222;16.332;2023-06-14T09:08:45;31.20;37.70
17843;DHT22;69286;48.222;16.332;2023-06-14T09:11:13;31.50;37.80
17843;DHT22;69286;48.222;16.332;2023-06-14T09:13:41;31.50;37.50
17843;DHT22;69286;48.222;16.332;2023-06-14T09:16:09;31.50;37.00
17843;DHT22;69286;48.222;16.332;2023-06-14T09:18:37;31.30;37.30
17843;DHT22;69286;48.222;16.332;2023-06-14T09:21:06;31.30;37.80
17843;DHT22;69286;48.222;16.332;2023-06-14T09:23:36;31.50;36.90
17843;DHT22;69286;48.222;16.332;2023-06-14T09:26:07;31.10;36.20
17843;DHT22;69286;48.222;16.332;2023-06-14T09:28:34;30.20;37.80
17843;DHT22;69286;48.222;16.332;2023-06-14T09:31:02;30.20;37.80
17843;DHT22;69286;48.222;16.332;2023-06-14T09:33:30;29.70;39.40
17843;DHT22;69286;48.222;16.332;2023-06-14T09:35:57;29.30;38.80
17843;DHT22;69286;48.222;16.332;2023-06-14T09:38:25;29.10;39.40
17843;DHT22;69286;48.222;16.332;2023-06-14T09:40:56;29.10;39.40
17843;DHT22;69286;48.222;16.332;2023-06-14T09:43:23;29.10;39.80
17843;DHT22;69286;48.222;16.332;2023-06-14T09:45:54;28.80;39.70
17843;DHT22;69286;48.222;16.332;2023-06-14T09:48:21;28.50;39.80
17843;DHT22;69286;48.222;16.332;2023-06-14T09:50:50;27.90;40.90
17843;DHT22;69286;48.222;16.332;2023-06-14T09:53:20;27.50;41.50
17843;DHT22;69286;48.222;16.332;2023-06-14T09:55:49;27.10;41.60
17843;DHT22;69286;48.222;16.332;2023-06-14T09:58:20;26.90;42.30
17843;DHT22;69286;48.222;16.332;2023-06-14T10:00:50;26.60;42.20
17843;DHT22;69286;48.222;16.332;2023-06-14T10:03:24;26.10;43.30
17843;DHT22;69286;48.222;16.332;2023-06-14T10:05:52;25.90;43.10
17843;DHT22;69286;48.222;16.332;2023-06-14T10:08:24;25.60;44.00
17843;DHT22;69286;48.222;16.332;2023-06-14T10:10:53;25.70;44.20
17843;DHT22;69286;48.222;16.332;2023-06-14T10:13:26;25.80;43.20
17843;DHT22;69286;48.222;16.332;2023-06-14T10:16:00;25.90;42.30
17843;DHT22;69286;48.222;16.332;2023-06-14T10:18:35;26.00;42.20
17843;DHT22;69286;48.222;16.332;2023-06-14T10:21:18;26.00;42.80
17843;DHT22;69286;48.222;16.332;2023-06-14T10:23:49;25.90;42.70
17843;DHT22;69286;48.222;16.332;2023-06-14T10:26:20;25.80;43.30
17843;DHT22;69286;48.222;16.332;2023-06-14T10:29:01;25.70;43.20
17843;DHT22;69286;48.222;16.332;2023-06-14T10:31:46;25.70;42.60
17843;DHT22;69286;48.222;16.332;2023-06-14T10:34:21;25.80;41.70
17843;DHT22;69286;48.222;16.332;2023-06-14T10:37:03;25.50;41.90
17843;DHT22;69286;48.222;16.332;2023-06-14T10:39:31;25.40;42.50
17843;DHT22;69286;48.222;16.332;2023-06-14T10:42:01;25.60;43.30
17843;DHT22;69286;48.222;16.332;2023-06-14T10:44:49;25.50;43.90
17843;DHT22;69286;48.222;16.332;2023-06-14T10:47:32;25.80;43.20
17843;DHT22;69286;48.222;16.332;2023-06-14T10:50:04;25.90;42.90
17843;DHT22;69286;48.222;16.332;2023-06-14T10:52:34;25.80;43.50
17843;DHT22;69286;48.222;16.332;2023-06-14T10:55:03;25.60;43.80
17843;DHT22;69286;48.222;16.332;2023-06-14T10:57:32;25.60;44.20
17843;DHT22;69286;48.222;16.332;2023-06-14T11:00:01;25.80;43.80
17843;DHT22;69286;48.222;16.332;2023-06-14T11:05:48;25.80;43.50
17843;DHT22;69286;48.222;16.332;2023-06-14T11:11:21;25.80;44.10
17843;DHT22;69286;48.222;16.332;2023-06-14T11:13:49;25.90;44.00
17843;DHT22;69286;48.222;16.332;2023-06-14T11:16:19;26.00;42.20
17843;DHT22;69286;48.222;16.332;2023-06-14T11:18:46;25.60;42.20
17843;DHT22;69286;48.222;16.332;2023-06-14T11:21:16;25.60;42.50
17843;DHT22;69286;48.222;16.332;2023-06-14T11:23:49;25.50;42.70
17843;DHT22;69286;48.222;16.332;2023-06-14T11:26:24;25.60;43.40
17843;DHT22;69286;48.222;16.332;2023-06-14T11:28:55;25.60;41.90
17843;DHT22;69286;48.222;16.332;2023-06-14T11:31:25;25.50;41.80
17843;DHT22;69286;48.222;16.332;2023-06-14T11:33:54;25.40;41.60
17843;DHT22;69286;48.222;16.332;2023-06-14T11:36:22;25.40;41.80
17843;DHT22;69286;48.222;16.332;2023-06-14T11:38:49;25.50;42.50
17843;DHT22;69286;48.222;16.332;2023-06-14T11:41:16;25.50;42.00
17843;DHT22;69286;48.222;16.332;2023-06-14T11:43:46;25.60;42.70
17843;DHT22;69286;48.222;16.332;2023-06-14T11:46:14;25.60;42.70
17843;DHT22;69286;48.222;16.332;2023-06-14T11:48:44;25.70;42.60
17843;DHT22;69286;48.222;16.332;2023-06-14T11:51:11;25.60;42.20
17843;DHT22;69286;48.222;16.332;2023-06-14T11:53:39;25.50;42.60
17843;DHT22;69286;48.222;16.332;2023-06-14T11:56:06;25.40;42.70
17843;DHT22;69286;48.222;16.332;2023-06-14T11:58:33;25.30;42.20
17843;DHT22;69286;48.222;16.332;2023-06-14T12:01:03;25.10;42.70
17843;DHT22;69286;48.222;16.332;2023-06-14T12:03:30;25.20;43.00
17843;DHT22;69286;48.222;16.332;2023-06-14T12:06:06;25.30;43.10
17843;DHT22;69286;48.222;16.332;2023-06-14T12:08:35;25.50;43.60
17843;DHT22;69286;48.222;16.332;2023-06-14T12:11:04;25.50;42.20
17843;DHT22;69286;48.222;16.332;2023-06-14T12:13:34;25.40;42.20
17843;DHT22;69286;48.222;16.332;2023-06-14T12:16:02;25.40;42.70
17843;DHT22;69286;48.222;16.332;2023-06-14T12:18:33;25.50;42.40
17843;DHT22;69286;48.222;16.332;2023-06-14T12:21:02;25.30;43.30
17843;DHT22;69286;48.222;16.332;2023-06-14T12:23:43;25.30;42.40
17843;DHT22;69286;48.222;16.332;2023-06-14T12:26:12;25.20;43.10
17843;DHT22;69286;48.222;16.332;2023-06-14T12:28:40;25.10;43.20
17843;DHT22;69286;48.222;16.332;2023-06-14T12:31:07;25.10;44.10
17843;DHT22;69286;48.222;16.332;2023-06-14T12:33:34;25.20;44.00
17843;DHT22;69286;48.222;16.332;2023-06-14T12:36:03;25.30;43.10
17843;DHT22;69286;48.222;16.332;2023-06-14T12:38:31;25.30;43.10
17843;DHT22;69286;48.222;16.332;2023-06-14T12:40:59;25.40;43.80
17843;DHT22;69286;48.222;16.332;2023-06-14T12:43:27;25.40;43.30
17843;DHT22;69286;48.222;16.332;2023-06-14T12:45:54;25.30;43.80
17843;DHT22;69286;48.222;16.332;2023-06-14T12:48:22;25.20;42.90
17843;DHT22;69286;48.222;16.332;2023-06-14T12:50:49;25.00;43.10
17843;DHT22;69286;48.222;16.332;2023-06-14T12:53:16;24.80;43.40
17843;DHT22;69286;48.222;16.332;2023-06-14T12:55:43;24.90;43.80
17843;DHT22;69286;48.222;16.332;2023-06-14T12:58:12;24.70;44.10
17843;DHT22;69286;48.222;16.332;2023-06-14T13:00:39;24.70;44.00
17843;DHT22;69286;48.222;16.332;2023-06-14T13:03:06;24.20;44.30
17843;DHT22;69286;48.222;16.332;2023-06-14T13:05:33;24.00;44.70
17843;DHT22;69286;48.222;16.332;2023-06-14T13:08:01;23.90;44.60
17843;DHT22;69286;48.222;16.332;2023-06-14T13:10:28;23.90;44.90
17843;DHT22;69286;48.222;16.332;2023-06-14T13:12:55;23.90;45.10
17843;DHT22;69286;48.222;16.332;2023-06-14T13:15:28;23.90;45.00
17843;DHT22;69286;48.222;16.332;2023-06-14T13:17:55;24.00;45.20
17843;DHT22;69286;48.222;16.332;2023-06-14T13:20:23;24.00;45.00
17843;DHT22;69286;48.222;16.332;2023-06-14T13:22:51;24.00;44.60
17843;DHT22;69286;48.222;16.332;2023-06-14T13:25:18;24.20;44.90
17843;DHT22;69286;48.222;16.332;2023-06-14T13:27:46;24.20;44.90
17843;DHT22;69286;48.222;16.332;2023-06-14T13:30:14;24.30;44.80
17843;DHT22;69286;48.222;16.332;2023-06-14T13:32:42;24.50;44.60
17843;DHT22;69286;48.222;16.332;2023-06-14T13:35:09;24.50;43.60
17843;DHT22;69286;48.222;16.332;2023-06-14T13:37:36;24.40;43.90
17843;DHT22;69286;48.222;16.332;2023-06-14T13:40:04;24.60;44.60
17843;DHT22;69286;48.222;16.332;2023-06-14T13:42:32;24.70;44.10
17843;DHT22;69286;48.222;16.332;2023-06-14T13:44:59;24.60;43.60
17843;DHT22;69286;48.222;16.332;2023-06-14T13:47:26;24.50;43.50
17843;DHT22;69286;48.222;16.332;2023-06-14T13:49:54;24.50;43.60
17843;DHT22;69286;48.222;16.332;2023-06-14T13:52:22;24.30;43.80
17843;DHT22;69286;48.222;16.332;2023-06-14T13:54:49;24.20;44.20
17843;DHT22;69286;48.222;16.332;2023-06-14T13:57:17;24.20;43.90
17843;DHT22;69286;48.222;16.332;2023-06-14T13:59:44;24.20;44.30
17843;DHT22;69286;48.222;16.332;2023-06-14T14:02:12;24.10;44.20
17843;DHT22;69286;48.222;16.332;2023-06-14T14:04:40;24.20;44.20
17843;DHT22;69286;48.222;16.332;2023-06-14T14:07:09;24.00;44.30
17843;DHT22;69286;48.222;16.332;2023-06-14T14:09:36;24.20;44.70
17843;DHT22;69286;48.222;16.332;2023-06-14T14:12:05;24.20;44.40
17843;DHT22;69286;48.222;16.332;2023-06-14T14:14:32;24.10;44.60
17843;DHT22;69286;48.222;16.332;2023-06-14T14:17:00;24.10;44.70
17843;DHT22;69286;48.222;16.332;2023-06-14T14:19:26;24.00;45.10
17843;DHT22;69286;48.222;16.332;2023-06-14T14:21:54;24.00;44.90
17843;DHT22;69286;48.222;16.332;2023-06-14T14:24:22;23.80;45.30
17843;DHT22;69286;48.222;16.332;2023-06-14T14:26:49;23.80;45.40
17843;DHT22;69286;48.222;16.332;2023-06-14T14:29:19;23.90;45.40
17843;DHT22;69286;48.222;16.332;2023-06-14T14:31:46;24.00;45.20
17843;DHT22;69286;48.222;16.332;2023-06-14T14:34:13;24.20;45.00
17843;DHT22;69286;48.222;16.332;2023-06-14T14:36:40;24.20;44.70
17843;DHT22;69286;48.222;16.332;2023-06-14T14:39:08;24.20;44.90
17843;DHT22;69286;48.222;16.332;2023-06-14T14:41:36;24.40;45.10
17843;DHT22;69286;48.222;16.332;2023-06-14T14:44:06;24.40;45.10
17843;DHT22;69286;48.222;16.332;2023-06-14T14:46:33;24.50;44.50
17843;DHT22;69286;48.222;16.332;2023-06-14T14:49:00;24.70;44.00
17843;DHT22;69286;48.222;16.332;2023-06-14T14:51:27;24.70;43.80
17843;DHT22;69286;48.222;16.332;2023-06-14T14:53:54;24.80;44.00
17843;DHT22;69286;48.222;16.332;2023-06-14T14:56:21;24.80;43.90
17843;DHT22;69286;48.222;16.332;2023-06-14T14:58:50;24.80;43.40
17843;DHT22;69286;48.222;16.332;2023-06-14T15:01:17;24.50;43.60
17843;DHT22;69286;48.222;16.332;2023-06-14T15:03:44;24.50;44.30
17843;DHT22;69286;48.222;16.332;2023-06-14T15:06:11;24.40;44.50
17843;DHT22;69286;48.222;16.332;2023-06-14T15:08:38;24.40;44.40
17843;DHT22;69286;48.222;16.332;2023-06-14T15:11:05;24.30;44.70
17843;DHT22;69286;48.222;16.332;2023-06-14T15:13:32;24.10;45.00
17843;DHT22;69286;48.222;16.332;2023-06-14T15:16:00;24.20;44.80
17843;DHT22;69286;48.222;16.332;2023-06-14T15:18:27;24.20;44.50
17843;DHT22;69286;48.222;16.332;2023-06-14T15:20:54;24.20;44.20
17843;DHT22;69286;48.222;16.332;2023-06-14T15:23:22;24.20;44.40
17843;DHT22;69286;48.222;16.332;2023-06-14T15:25:49;24.30;44.80
17843;DHT22;69286;48.222;16.332;2023-06-14T15:28:17;24.20;44.80